Time;durP1;ratioP1;P1;durP2;ratioP2;P2;SDS_P1;SDS_P2;PMS_P1;PMS_P2;Temp;Humidity;BMP_temperature;BMP_pressure;BME280_temperature;BME280_humidity;BME280_pressure;Samples;Min_cycle;Max_cycle;Signal;HPM_P1;HPM_P2
2022/03/30 00:01:25;;;;;;;27.73;7.60;;;6.50;99.90;;;;;;5047611;28;20060;-60
2022/03/30 00:03:50;;;;;;;16.88;6.85;;;6.50;99.90;;;;;;5047832;28;20513;-63
2022/03/30 00:06:16;;;;;;;19.23;7.00;;;6.40;99.90;;;;;;5048382;28;20045;-60
2022/03/30 00:08:42;;;;;;;22.10;7.35;;;6.40;99.90;;;;;;5047647;28;20446;-60
2022/03/30 00:11:09;;;;;;;24.65;8.27;;;6.40;99.90;;;;;;5046972;28;20041;-59
2022/03/30 00:13:39;;;;;;;35.92;10.48;;;6.40;99.90;;;;;;5047681;28;20029;-59
2022/03/30 00:16:06;;;;;;;20.00;7.25;;;6.30;99.90;;;;;;5047369;28;20048;-60
2022/03/30 00:18:32;;;;;;;20.05;7.13;;;6.40;99.90;;;;;;5047622;28;20283;-60
2022/03/30 00:20:59;;;;;;;25.35;6.88;;;6.30;99.90;;;;;;5046970;28;20463;-61
2022/03/30 00:23:24;;;;;;;17.38;7.05;;;6.30;99.90;;;;;;5047737;28;20044;-60
2022/03/30 00:25:50;;;;;;;18.25;6.15;;;6.30;99.90;;;;;;5047184;28;20036;-59
2022/03/30 00:28:16;;;;;;;22.70;6.82;;;6.30;99.90;;;;;;5047696;28;20464;-59
2022/03/30 00:30:41;;;;;;;27.80;8.25;;;6.20;99.90;;;;;;5045891;28;20037;-59
2022/03/30 00:33:07;;;;;;;17.05;7.35;;;6.10;99.90;;;;;;5047811;28;20063;-60
2022/03/30 00:35:33;;;;;;;24.48;7.65;;;6.10;99.90;;;;;;5047381;28;20041;-59
2022/03/30 00:37:58;;;;;;;21.48;7.43;;;6.10;99.90;;;;;;5047203;28;20091;-61
2022/03/30 00:40:24;;;;;;;29.23;8.48;;;6.10;99.90;;;;;;5028748;28;20416;-59
2022/03/30 00:42:50;;;;;;;23.38;7.13;;;6.10;99.90;;;;;;5047524;28;20435;-59
2022/03/30 00:45:21;;;;;;;26.23;8.27;;;6.10;99.90;;;;;;5047798;28;20041;-59
2022/03/30 00:47:47;;;;;;;23.05;6.88;;;6.10;99.90;;;;;;5046949;28;20459;-59
2022/03/30 00:50:16;;;;;;;28.35;7.60;;;6.10;99.90;;;;;;5046451;28;20052;-59
2022/03/30 00:52:42;;;;;;;21.95;7.50;;;6.00;99.90;;;;;;5046803;28;20092;-61
2022/03/30 00:55:09;;;;;;;24.70;7.07;;;6.00;99.90;;;;;;5047464;28;20043;-60
2022/03/30 00:57:36;;;;;;;14.38;6.20;;;6.10;99.90;;;;;;5043199;28;20066;-61
2022/03/30 01:00:05;;;;;;;20.70;6.43;;;6.10;99.90;;;;;;5046255;28;20040;-60
2022/03/30 01:02:31;;;;;;;25.75;7.20;;;6.10;99.90;;;;;;5046981;28;20022;-59
2022/03/30 01:04:57;;;;;;;20.85;7.22;;;6.00;99.90;;;;;;5047330;28;20182;-60
2022/03/30 01:07:22;;;;;;;24.90;7.25;;;6.00;99.90;;;;;;5047230;28;20045;-61
2022/03/30 01:09:48;;;;;;;26.50;8.73;;;6.00;99.90;;;;;;5046210;28;20080;-60
2022/03/30 01:12:14;;;;;;;25.13;7.80;;;6.00;99.90;;;;;;5046677;28;20044;-59
2022/03/30 01:14:40;;;;;;;20.85;8.52;;;6.00;99.90;;;;;;5046907;28;20029;-61
2022/03/30 01:17:06;;;;;;;23.55;6.72;;;6.00;99.90;;;;;;5046944;28;20096;-62
2022/03/30 01:19:34;;;;;;;27.50;7.38;;;6.00;99.90;;;;;;5042114;28;20766;-61
2022/03/30 01:22:00;;;;;;;24.15;6.75;;;6.00;99.90;;;;;;5046154;28;20044;-59
2022/03/30 01:24:27;;;;;;;22.80;7.50;;;6.00;99.90;;;;;;5047078;28;20502;-60
2022/03/30 01:26:52;;;;;;;20.00;6.72;;;6.00;99.90;;;;;;5046754;28;20021;-60
2022/03/30 01:34:48;;;;;;;29.60;9.23;;;5.90;99.90;;;;;;5044665;28;20144;-60
2022/03/30 01:37:14;;;;;;;31.73;7.25;;;5.80;99.90;;;;;;5047375;28;20029;-62
2022/03/30 01:39:40;;;;;;;27.13;7.70;;;5.70;99.90;;;;;;5046174;28;20033;-61
2022/03/30 01:42:07;;;;;;;26.80;8.10;;;5.70;99.90;;;;;;5046250;28;20464;-60
2022/03/30 01:44:33;;;;;;;18.98;7.15;;;5.70;99.90;;;;;;5046476;28;20114;-60
2022/03/30 01:46:59;;;;;;;27.92;8.50;;;5.70;99.90;;;;;;5046346;28;20060;-59
2022/03/30 01:49:25;;;;;;;28.27;8.57;;;5.60;99.90;;;;;;5046576;28;20064;-62
2022/03/30 01:51:52;;;;;;;25.38;7.53;;;5.60;99.90;;;;;;5045699;28;20683;-61
2022/03/30 01:54:20;;;;;;;18.20;6.95;;;5.50;99.90;;;;;;5047042;28;20091;-59
2022/03/30 01:56:47;;;;;;;21.80;7.90;;;5.50;99.90;;;;;;5045985;28;20071;-61
2022/03/30 01:59:13;;;;;;;21.83;7.68;;;5.50;99.90;;;;;;5046595;28;20120;-61
2022/03/30 02:01:39;;;;;;;22.58;7.57;;;5.50;99.90;;;;;;5045220;28;20582;-59
2022/03/30 02:04:08;;;;;;;23.88;6.95;;;5.50;99.90;;;;;;5046543;28;20029;-59
2022/03/30 02:06:35;;;;;;;23.17;8.05;;;5.40;99.90;;;;;;5046169;28;20029;-60
2022/03/30 02:09:01;;;;;;;18.13;7.40;;;5.40;99.90;;;;;;5046755;28;20504;-61
2022/03/30 02:11:27;;;;;;;23.70;8.05;;;5.40;99.90;;;;;;5027809;28;20128;-59
2022/03/30 02:13:53;;;;;;;30.92;9.02;;;5.30;99.90;;;;;;5045722;28;20119;-61
2022/03/30 02:16:19;;;;;;;23.65;9.10;;;5.20;99.90;;;;;;5046223;28;20033;-60
2022/03/30 02:18:45;;;;;;;23.38;7.18;;;5.20;99.90;;;;;;5045840;28;20393;-60
2022/03/30 02:21:11;;;;;;;30.35;9.35;;;5.20;99.90;;;;;;5048116;28;20044;-60
2022/03/30 02:23:37;;;;;;;19.52;7.53;;;5.20;99.90;;;;;;5049943;28;20049;-61
2022/03/30 02:26:03;;;;;;;24.25;8.02;;;5.20;99.90;;;;;;5050262;28;20033;-61
2022/03/30 02:28:28;;;;;;;26.02;8.35;;;5.10;99.90;;;;;;5049329;28;20043;-63
2022/03/30 02:30:54;;;;;;;19.80;7.43;;;5.20;99.90;;;;;;5048750;28;20178;-61
2022/03/30 02:33:19;;;;;;;18.95;7.40;;;5.20;99.90;;;;;;5049657;28;20127;-61
2022/03/30 02:35:45;;;;;;;24.73;8.43;;;5.20;99.90;;;;;;5042276;28;20042;-61
2022/03/30 02:38:10;;;;;;;23.67;8.40;;;5.20;99.90;;;;;;5040103;28;20037;-61
2022/03/30 02:40:36;;;;;;;24.58;7.50;;;5.20;99.90;;;;;;5041274;28;20560;-61
2022/03/30 02:43:02;;;;;;;26.88;8.73;;;5.20;99.90;;;;;;5049713;28;20029;-61
2022/03/30 02:45:27;;;;;;;22.20;8.30;;;5.10;99.90;;;;;;5049896;28;20135;-61
2022/03/30 02:50:37;;;;;;;30.08;8.63;;;5.10;99.90;;;;;;5045910;28;20532;-61
2022/03/30 02:53:03;;;;;;;19.98;8.07;;;5.00;99.90;;;;;;5049595;28;20037;-61
2022/03/30 02:55:28;;;;;;;27.83;8.82;;;5.00;99.90;;;;;;5049321;28;20056;-63
2022/03/30 02:57:54;;;;;;;25.98;6.78;;;5.00;99.90;;;;;;5048430;28;20037;-62
2022/03/30 03:00:20;;;;;;;24.95;8.15;;;5.00;99.90;;;;;;5049163;28;20033;-61
2022/03/30 03:02:46;;;;;;;27.00;7.68;;;4.90;99.90;;;;;;5048739;28;20116;-61
2022/03/30 03:05:11;;;;;;;21.02;6.95;;;4.90;99.90;;;;;;5049731;28;20560;-61
2022/03/30 03:07:37;;;;;;;20.10;8.13;;;4.90;99.90;;;;;;5047333;28;20041;-61
2022/03/30 03:10:03;;;;;;;26.38;8.55;;;4.80;99.90;;;;;;5047960;28;20039;-61
2022/03/30 03:12:29;;;;;;;26.33;8.30;;;4.80;99.90;;;;;;5049266;28;20049;-61
2022/03/30 03:14:54;;;;;;;25.13;7.10;;;4.80;99.90;;;;;;5049343;28;20045;-63
2022/03/30 03:17:20;;;;;;;23.23;7.45;;;4.80;99.90;;;;;;5049919;28;20025;-61
2022/03/30 03:19:46;;;;;;;32.03;8.57;;;4.80;99.90;;;;;;5048621;28;20087;-60
2022/03/30 03:22:12;;;;;;;19.48;7.18;;;4.90;99.90;;;;;;5050752;28;20029;-61
2022/03/30 03:24:37;;;;;;;27.45;6.93;;;4.90;99.90;;;;;;5050943;28;20033;-62
2022/03/30 03:27:03;;;;;;;18.38;7.38;;;4.90;99.90;;;;;;5050398;28;20029;-62
2022/03/30 03:29:29;;;;;;;21.95;6.88;;;4.90;99.90;;;;;;5048706;28;20052;-61
2022/03/30 03:31:54;;;;;;;26.10;6.53;;;5.00;99.90;;;;;;5047026;28;20041;-62
2022/03/30 03:34:20;;;;;;;24.80;7.55;;;5.00;99.90;;;;;;5048952;28;20041;-61
2022/03/30 03:36:45;;;;;;;20.33;6.32;;;5.00;99.90;;;;;;5048162;28;20460;-61
2022/03/30 03:39:11;;;;;;;20.98;6.93;;;5.00;99.90;;;;;;5048917;28;20037;-61
2022/03/30 03:41:36;;;;;;;25.13;7.13;;;5.00;99.90;;;;;;5047895;28;20041;-61
2022/03/30 03:44:03;;;;;;;28.30;7.18;;;5.00;99.90;;;;;;5051604;28;20056;-61
2022/03/30 03:46:29;;;;;;;20.13;6.68;;;5.00;99.90;;;;;;5048279;28;20526;-62
2022/03/30 03:48:55;;;;;;;21.80;7.63;;;5.00;99.90;;;;;;5048405;28;20041;-62
2022/03/30 03:51:21;;;;;;;18.95;6.38;;;5.00;99.90;;;;;;5047851;28;20794;-60
2022/03/30 03:53:47;;;;;;;26.50;6.35;;;5.00;99.90;;;;;;5047807;28;20079;-61
2022/03/30 03:56:12;;;;;;;24.35;6.70;;;4.90;99.90;;;;;;5048705;28;20546;-61
2022/03/30 03:58:38;;;;;;;20.55;6.57;;;4.90;99.90;;;;;;5047603;28;20032;-60
2022/03/30 04:01:04;;;;;;;15.32;5.55;;;4.80;99.90;;;;;;5047719;28;20119;-60
2022/03/30 04:03:29;;;;;;;26.85;6.85;;;4.90;99.90;;;;;;5047387;28;20083;-61
2022/03/30 04:05:56;;;;;;;29.52;7.60;;;4.80;99.90;;;;;;5048151;28;20683;-61
2022/03/30 04:08:21;;;;;;;23.70;7.10;;;4.80;99.90;;;;;;5046849;28;20128;-62
2022/03/30 04:10:48;;;;;;;21.55;6.25;;;4.80;99.90;;;;;;5046671;28;20033;-61
2022/03/30 04:13:13;;;;;;;19.15;5.75;;;4.70;99.90;;;;;;5030324;28;20400;-60
2022/03/30 04:15:40;;;;;;;19.75;7.45;;;4.70;99.90;;;;;;5046089;28;20031;-61
2022/03/30 04:18:07;;;;;;;21.75;6.05;;;4.70;99.90;;;;;;5047779;28;20500;-61
2022/03/30 04:20:33;;;;;;;23.33;6.50;;;4.70;99.90;;;;;;5046915;28;20051;-62
2022/03/30 04:23:00;;;;;;;22.30;6.95;;;4.70;99.90;;;;;;5047787;28;20036;-62
2022/03/30 04:25:25;;;;;;;17.45;5.53;;;4.70;99.90;;;;;;5048007;28;20041;-60
2022/03/30 04:27:52;;;;;;;18.80;6.22;;;4.70;99.90;;;;;;5047541;28;20551;-61
2022/03/30 04:30:20;;;;;;;21.40;6.00;;;4.70;99.90;;;;;;5047049;28;20037;-62
2022/03/30 04:32:47;;;;;;;20.73;7.15;;;4.70;99.90;;;;;;5042847;28;20056;-60
2022/03/30 04:35:14;;;;;;;26.20;5.93;;;4.70;99.90;;;;;;5041827;28;20033;-62
2022/03/30 04:37:40;;;;;;;22.60;5.75;;;4.70;99.90;;;;;;5036759;28;20466;-62
2022/03/30 04:40:07;;;;;;;22.20;6.70;;;4.70;99.90;;;;;;5035005;28;20033;-61
2022/03/30 04:42:33;;;;;;;16.05;6.80;;;4.60;99.90;;;;;;5038603;28;20029;-61
2022/03/30 04:44:59;;;;;;;19.17;5.68;;;4.60;99.90;;;;;;5037219;28;20251;-62
2022/03/30 04:47:24;;;;;;;28.52;7.18;;;4.60;99.90;;;;;;5039855;28;20385;-60
2022/03/30 04:49:50;;;;;;;20.85;7.80;;;4.60;99.90;;;;;;5033920;28;20069;-61
2022/03/30 04:52:16;;;;;;;24.70;6.38;;;4.60;99.90;;;;;;5047002;28;20068;-60
2022/03/30 04:54:41;;;;;;;28.05;6.93;;;4.60;99.90;;;;;;5027656;28;20033;-61
2022/03/30 04:57:07;;;;;;;20.20;6.53;;;4.60;99.90;;;;;;5038372;28;20041;-60
2022/03/30 04:59:32;;;;;;;24.15;7.88;;;4.50;99.90;;;;;;5035358;28;20155;-60
2022/03/30 05:01:59;;;;;;;31.45;7.35;;;4.50;99.90;;;;;;5034713;28;20506;-61
2022/03/30 05:04:24;;;;;;;26.30;6.22;;;4.40;99.90;;;;;;5038429;28;20040;-61
2022/03/30 05:06:50;;;;;;;20.30;6.10;;;4.50;99.90;;;;;;5043361;28;20037;-61
2022/03/30 05:09:15;;;;;;;21.17;8.38;;;4.50;99.90;;;;;;5036848;28;20488;-61
2022/03/30 05:11:41;;;;;;;31.05;7.70;;;4.40;99.90;;;;;;5041087;28;20037;-61
2022/03/30 05:14:07;;;;;;;26.40;6.90;;;4.40;99.90;;;;;;5028405;28;20067;-61
2022/03/30 05:16:34;;;;;;;24.60;6.88;;;4.40;99.90;;;;;;5045477;28;20037;-60
2022/03/30 05:19:02;;;;;;;26.17;7.00;;;4.30;99.90;;;;;;5038140;28;20591;-63
2022/03/30 05:21:29;;;;;;;27.33;6.25;;;4.30;99.90;;;;;;5037091;28;20032;-61
2022/03/30 05:23:54;;;;;;;16.92;7.20;;;4.40;99.90;;;;;;5034210;28;20033;-61
2022/03/30 05:26:20;;;;;;;24.45;7.03;;;4.40;99.90;;;;;;5039496;28;20080;-61
2022/03/30 05:28:46;;;;;;;19.70;6.65;;;4.30;99.90;;;;;;5033226;28;20496;-60
2022/03/30 05:31:12;;;;;;;21.10;6.53;;;4.30;99.90;;;;;;5034130;28;20061;-62
2022/03/30 05:33:37;;;;;;;33.67;7.80;;;4.40;99.90;;;;;;5035704;28;20038;-61
2022/03/30 05:36:04;;;;;;;15.15;6.65;;;4.30;99.90;;;;;;5042462;28;20029;-61
2022/03/30 05:38:30;;;;;;;29.23;7.35;;;4.30;99.90;;;;;;5045486;28;20029;-61
2022/03/30 05:40:55;;;;;;;19.45;6.20;;;4.40;99.90;;;;;;5045996;28;20028;-61
2022/03/30 05:43:22;;;;;;;27.05;8.32;;;4.40;99.90;;;;;;5049576;28;20029;-60
2022/03/30 05:45:48;;;;;;;21.90;7.18;;;4.40;99.90;;;;;;5042843;28;20132;-60
2022/03/30 05:48:15;;;;;;;23.80;7.65;;;4.40;99.90;;;;;;5047164;28;20076;-60
2022/03/30 05:50:41;;;;;;;23.30;6.78;;;4.40;99.90;;;;;;5045680;28;20606;-61
2022/03/30 05:53:06;;;;;;;21.02;6.68;;;4.50;99.90;;;;;;5047209;28;20041;-61
2022/03/30 05:55:33;;;;;;;38.20;6.57;;;4.50;99.90;;;;;;5047672;28;20562;-61
2022/03/30 05:57:59;;;;;;;22.92;6.57;;;4.60;99.90;;;;;;5050331;28;20469;-61
2022/03/30 06:00:24;;;;;;;18.60;6.45;;;4.70;99.90;;;;;;5049593;28;20108;-62
2022/03/30 06:02:50;;;;;;;17.65;7.60;;;4.90;99.90;;;;;;5049737;28;20568;-61
2022/03/30 06:05:16;;;;;;;19.15;6.85;;;5.00;99.90;;;;;;5050750;28;20029;-62
2022/03/30 06:07:42;;;;;;;21.77;7.97;;;5.20;99.90;;;;;;5050184;28;20076;-61
2022/03/30 06:10:08;;;;;;;16.63;6.65;;;5.40;99.90;;;;;;5049766;28;20041;-63
2022/03/30 06:12:33;;;;;;;18.48;5.72;;;5.60;99.90;;;;;;5049576;28;20063;-63
2022/03/30 06:14:59;;;;;;;15.90;6.95;;;5.90;99.90;;;;;;5048813;28;20033;-62
2022/03/30 06:17:27;;;;;;;18.17;5.75;;;6.20;99.90;;;;;;5050955;28;20033;-62
2022/03/30 06:19:53;;;;;;;17.77;6.55;;;6.30;99.90;;;;;;5026843;28;20025;-60
2022/03/30 06:22:19;;;;;;;21.17;6.03;;;6.30;99.90;;;;;;5042470;28;20503;-61
2022/03/30 06:24:45;;;;;;;24.30;6.75;;;6.30;99.90;;;;;;5045867;28;20159;-60
2022/03/30 06:27:12;;;;;;;18.70;6.93;;;6.20;99.90;;;;;;5050523;28;20040;-61
2022/03/30 06:29:39;;;;;;;19.23;6.10;;;6.20;99.90;;;;;;5049641;28;20029;-61
2022/03/30 06:32:06;;;;;;;23.55;6.25;;;6.20;99.90;;;;;;5049200;28;20041;-61
2022/03/30 06:34:32;;;;;;;21.40;7.05;;;6.20;99.90;;;;;;5049128;28;20116;-61
2022/03/30 06:36:58;;;;;;;20.88;5.60;;;6.30;99.90;;;;;;5050270;28;20393;-61
2022/03/30 06:39:24;;;;;;;21.52;6.07;;;6.50;99.90;;;;;;5049884;28;20044;-61
2022/03/30 06:41:50;;;;;;;25.15;6.32;;;6.90;99.90;;;;;;5050239;28;20037;-62
2022/03/30 06:44:16;;;;;;;21.10;5.88;;;7.30;99.90;;;;;;5049758;28;20182;-61
2022/03/30 06:46:43;;;;;;;21.77;7.32;;;7.70;99.90;;;;;;5048964;28;20029;-61
2022/03/30 06:49:12;;;;;;;25.30;7.25;;;7.90;99.90;;;;;;5045487;28;20496;-62
2022/03/30 06:51:38;;;;;;;26.17;6.03;;;8.00;99.90;;;;;;5037128;28;20083;-60
2022/03/30 06:54:05;;;;;;;17.65;5.70;;;8.10;99.90;;;;;;5040318;28;20038;-61
2022/03/30 06:56:31;;;;;;;22.70;7.22;;;8.20;99.90;;;;;;5038969;28;20025;-62
2022/03/30 06:58:57;;;;;;;24.52;6.63;;;8.30;99.90;;;;;;5039405;28;20171;-61
2022/03/30 07:01:23;;;;;;;26.75;6.85;;;8.30;99.90;;;;;;5039974;28;20112;-61
2022/03/30 07:03:50;;;;;;;18.48;6.80;;;8.30;99.90;;;;;;5037851;28;20178;-61
2022/03/30 07:06:16;;;;;;;22.92;6.80;;;8.30;99.90;;;;;;5040936;28;20110;-61
2022/03/30 07:11:26;;;;;;;19.02;6.43;;;8.60;99.90;;;;;;5046419;28;20036;-62
2022/03/30 07:13:52;;;;;;;18.52;5.53;;;8.70;99.90;;;;;;5046989;28;20036;-61
2022/03/30 07:16:18;;;;;;;27.95;6.45;;;8.80;99.90;;;;;;5048696;28;20405;-60
2022/03/30 07:18:44;;;;;;;19.10;6.63;;;8.80;99.90;;;;;;5048796;28;20493;-62
2022/03/30 07:21:10;;;;;;;28.20;7.15;;;8.80;99.90;;;;;;5048675;28;20481;-62
2022/03/30 07:23:36;;;;;;;21.38;6.18;;;8.90;99.90;;;;;;5048342;28;20076;-61
2022/03/30 07:26:01;;;;;;;24.15;5.75;;;8.90;99.90;;;;;;5048848;28;20052;-61
2022/03/30 07:28:27;;;;;;;18.13;5.43;;;8.90;99.90;;;;;;5048857;28;20139;-61
2022/03/30 07:30:54;;;;;;;17.42;6.30;;;9.00;99.90;;;;;;5047770;28;20558;-61
2022/03/30 07:33:20;;;;;;;18.50;5.40;;;9.00;99.90;;;;;;5048892;28;20041;-61
2022/03/30 07:35:46;;;;;;;24.13;5.55;;;9.00;99.90;;;;;;5047813;28;20037;-62
2022/03/30 07:38:17;;;;;;;20.10;5.20;;;9.10;99.90;;;;;;5048891;28;20131;-61
2022/03/30 07:40:45;;;;;;;22.90;5.53;;;9.20;99.90;;;;;;5043728;28;20055;-61
2022/03/30 07:43:12;;;;;;;16.83;4.63;;;9.50;99.90;;;;;;5046436;28;20033;-61
2022/03/30 07:45:38;;;;;;;16.02;4.95;;;9.70;99.90;;;;;;5040290;28;20045;-61
2022/03/30 07:48:04;;;;;;;16.67;5.20;;;9.80;99.90;;;;;;5037076;28;20531;-61
2022/03/30 07:50:30;;;;;;;17.15;5.15;;;9.90;99.90;;;;;;5037585;28;20055;-62
2022/03/30 07:52:56;;;;;;;15.55;5.65;;;10.00;99.90;;;;;;5040278;28;20172;-62
2022/03/30 07:55:22;;;;;;;15.93;4.97;;;10.20;99.90;;;;;;5039025;28;20537;-62
2022/03/30 07:57:48;;;;;;;14.80;5.03;;;10.10;99.90;;;;;;5036670;28;20037;-61
2022/03/30 08:00:16;;;;;;;14.27;5.22;;;10.00;99.90;;;;;;5039389;28;20433;-61
2022/03/30 08:02:43;;;;;;;16.08;4.80;;;9.90;99.90;;;;;;5036388;28;20025;-61
2022/03/30 08:05:10;;;;;;;19.40;6.05;;;9.90;99.90;;;;;;5044430;28;20032;-61
2022/03/30 08:07:37;;;;;;;16.60;4.88;;;9.80;99.90;;;;;;5047376;28;20533;-61
2022/03/30 08:10:03;;;;;;;18.00;6.50;;;9.90;99.90;;;;;;5047491;28;20056;-60
2022/03/30 08:12:28;;;;;;;21.30;6.35;;;9.90;99.90;;;;;;5044552;28;20102;-61
2022/03/30 08:14:54;;;;;;;21.13;7.00;;;9.90;99.90;;;;;;5037433;28;20125;-61
2022/03/30 08:17:20;;;;;;;13.23;4.70;;;10.00;99.90;;;;;;5038500;28;20029;-61
2022/03/30 08:19:46;;;;;;;13.18;4.65;;;10.00;99.90;;;;;;5017971;28;20076;-61
2022/03/30 08:22:28;;;;;;;19.65;5.05;;;10.20;99.90;;;;;;5039986;28;20494;-60
2022/03/30 08:25:00;;;;;;;13.73;4.35;;;10.20;99.90;;;;;;5045959;28;20029;-61
2022/03/30 08:27:27;;;;;;;19.52;4.32;;;10.10;99.90;;;;;;5039877;28;20056;-62
2022/03/30 08:29:54;;;;;;;11.90;4.53;;;10.20;99.90;;;;;;5036794;28;20044;-60
2022/03/30 08:32:21;;;;;;;14.48;4.18;;;10.30;99.90;;;;;;5038718;28;20033;-60
2022/03/30 08:34:47;;;;;;;18.98;5.65;;;10.40;99.90;;;;;;5018161;28;20466;-60
2022/03/30 08:37:14;;;;;;;13.60;4.43;;;10.50;99.90;;;;;;5039395;28;20036;-61
2022/03/30 08:39:40;;;;;;;17.27;4.55;;;10.60;99.90;;;;;;5035478;28;20064;-62
2022/03/30 08:42:08;;;;;;;9.57;3.63;;;10.60;99.90;;;;;;5038787;28;20041;-61
2022/03/30 08:44:34;;;;;;;15.93;4.53;;;10.60;99.90;;;;;;5047185;28;20087;-59
2022/03/30 08:47:01;;;;;;;12.77;3.90;;;10.80;99.90;;;;;;5047790;28;20037;-60
2022/03/30 08:49:27;;;;;;;20.73;5.15;;;10.90;99.90;;;;;;5031482;28;20120;-60
2022/03/30 08:51:54;;;;;;;17.73;4.53;;;10.90;99.90;;;;;;5048956;28;20128;-61
2022/03/30 08:54:21;;;;;;;14.00;5.30;;;10.90;99.90;;;;;;5031154;28;20041;-61
2022/03/30 08:56:47;;;;;;;10.93;3.85;;;10.70;99.90;;;;;;5048071;28;20557;-60
2022/03/30 08:59:17;;;;;;;17.58;5.50;;;10.80;99.90;;;;;;5047283;28;20116;-60
2022/03/30 09:01:44;;;;;;;16.42;4.38;;;10.80;99.90;;;;;;5046038;28;20075;-60
2022/03/30 09:04:12;;;;;;;9.98;3.88;;;11.00;99.90;;;;;;5047053;28;20150;-59
2022/03/30 09:07:04;;;;;;;13.88;4.68;;;10.90;99.90;;;;;;5046669;28;20029;-60
2022/03/30 09:09:35;;;;;;;9.48;4.13;;;10.90;99.90;;;;;;5034573;28;20513;-60
2022/03/30 09:12:07;;;;;;;16.42;4.43;;;10.90;99.90;;;;;;5037903;28;20033;-60
2022/03/30 09:14:34;;;;;;;16.83;5.28;;;10.80;99.90;;;;;;5034864;28;20026;-60
2022/03/30 09:17:05;;;;;;;10.90;4.82;;;10.90;99.90;;;;;;5035296;28;20382;-59
2022/03/30 09:19:36;;;;;;;15.30;4.53;;;11.00;99.90;;;;;;5037493;28;20059;-60
2022/03/30 09:22:04;;;;;;;14.05;4.45;;;11.20;99.90;;;;;;5035153;28;20480;-60
2022/03/30 09:24:39;;;;;;;11.68;4.50;;;11.10;99.90;;;;;;5037508;28;20045;-61
2022/03/30 09:27:07;;;;;;;9.13;4.45;;;11.10;99.90;;;;;;5024994;28;20444;-59
2022/03/30 09:29:36;;;;;;;15.55;3.70;;;11.20;99.90;;;;;;5047775;28;20033;-59
2022/03/30 09:32:03;;;;;;;8.77;3.60;;;11.20;99.90;;;;;;5023455;28;20511;-59
2022/03/30 09:34:33;;;;;;;13.25;4.50;;;11.40;99.90;;;;;;5039587;28;20059;-61
2022/03/30 09:36:59;;;;;;;11.43;3.90;;;11.30;99.90;;;;;;5024169;28;20401;-61
2022/03/30 09:39:38;;;;;;;10.63;3.85;;;11.20;99.90;;;;;;5039656;28;20029;-60
2022/03/30 09:42:07;;;;;;;10.57;3.50;;;11.20;99.90;;;;;;5044868;28;20029;-59
2022/03/30 09:44:45;;;;;;;11.80;3.53;;;11.20;99.90;;;;;;5046191;28;20082;-60
2022/03/30 09:47:11;;;;;;;10.43;4.13;;;11.10;99.90;;;;;;5046603;28;20098;-60
2022/03/30 09:49:41;;;;;;;16.92;4.63;;;10.90;99.90;;;;;;5049623;28;20443;-60
2022/03/30 09:52:33;;;;;;;11.97;4.30;;;10.80;99.90;;;;;;5046262;28;20041;-60
2022/03/30 09:55:05;;;;;;;16.20;5.35;;;10.70;99.90;;;;;;5037966;28;20037;-61
2022/03/30 09:57:38;;;;;;;13.05;4.10;;;10.60;99.90;;;;;;5038188;28;20052;-60
2022/03/30 10:00:15;;;;;;;9.75;3.85;;;10.80;99.90;;;;;;5045870;28;20037;-60
2022/03/30 10:02:41;;;;;;;12.63;4.60;;;10.90;99.90;;;;;;5047287;28;20118;-60
2022/03/30 10:05:17;;;;;;;9.00;3.83;;;11.00;99.90;;;;;;5050496;28;20032;-59
2022/03/30 10:07:42;;;;;;;13.27;4.35;;;11.20;99.90;;;;;;5049511;28;20063;-60
2022/03/30 10:10:12;;;;;;;9.30;4.15;;;11.20;99.90;;;;;;5049553;28;20485;-61
2022/03/30 10:12:38;;;;;;;11.35;3.83;;;11.30;99.90;;;;;;5048723;28;20037;-60
2022/03/30 10:15:05;;;;;;;9.75;5.03;;;11.30;99.90;;;;;;5050150;28;20103;-62
2022/03/30 10:17:31;;;;;;;8.68;3.35;;;11.50;99.90;;;;;;5027845;28;20070;-59
2022/03/30 10:20:01;;;;;;;6.45;2.85;;;11.80;99.90;;;;;;5049317;28;20037;-59
2022/03/30 10:22:45;;;;;;;10.18;3.22;;;12.00;99.90;;;;;;5050133;28;20029;-61
2022/03/30 10:25:39;;;;;;;5.35;2.65;;;12.10;99.90;;;;;;5047430;28;20044;-60
2022/03/30 10:28:21;;;;;;;7.38;3.60;;;11.90;99.90;;;;;;5046477;28;20068;-60
2022/03/30 10:30:54;;;;;;;8.25;2.83;;;12.00;99.90;;;;;;5047150;28;20049;-60
2022/03/30 10:33:35;;;;;;;11.07;2.58;;;12.10;99.70;;;;;;5049992;28;20548;-60
2022/03/30 10:36:36;;;;;;;6.20;1.73;;;12.20;99.10;;;;;;5045833;28;20052;-60
2022/03/30 10:39:07;;;;;;;5.82;2.05;;;12.30;98.10;;;;;;4956896;28;20091;-60
2022/03/30 10:42:05;;;;;;;4.93;2.28;;;12.40;97.10;;;;;;5030675;28;20766;-60
2022/03/30 10:44:45;;;;;;;4.97;2.38;;;12.50;97.80;;;;;;5045048;28;20112;-60
2022/03/30 10:47:25;;;;;;;6.40;2.72;;;12.70;97.70;;;;;;5045626;28;20566;-61
2022/03/30 10:50:00;;;;;;;6.83;2.67;;;12.70;97.50;;;;;;5048170;28;20157;-62
2022/03/30 10:52:41;;;;;;;7.10;2.67;;;12.80;97.40;;;;;;5049039;28;20056;-62
2022/03/30 10:55:13;;;;;;;7.50;2.83;;;12.80;98.20;;;;;;5046082;28;20068;-60
2022/03/30 10:58:02;;;;;;;6.70;2.22;;;12.60;98.20;;;;;;5031128;28;20040;-59
2022/03/30 11:00:39;;;;;;;9.85;2.38;;;12.70;98.70;;;;;;5028074;28;20044;-60
2022/03/30 11:03:17;;;;;;;8.32;2.13;;;12.80;98.50;;;;;;5028029;28;20052;-61
2022/03/30 11:05:46;;;;;;;3.78;1.63;;;12.90;97.60;;;;;;5049085;28;20037;-60
2022/03/30 11:08:33;;;;;;;6.03;1.48;;;12.80;96.80;;;;;;5049097;28;20039;-60
2022/03/30 11:11:03;;;;;;;5.57;2.42;;;12.80;97.20;;;;;;5043982;28;20041;-60
2022/03/30 11:13:28;;;;;;;4.72;1.27;;;12.90;97.80;;;;;;5044728;28;20037;-60
2022/03/30 11:15:58;;;;;;;7.95;1.60;;;13.00;97.20;;;;;;5048142;28;20689;-59
2022/03/30 11:18:24;;;;;;;4.30;1.83;;;13.10;97.00;;;;;;5048668;28;20051;-60
2022/03/30 11:21:08;;;;;;;5.55;1.30;;;13.10;96.30;;;;;;5047497;28;20041;-60
2022/03/30 11:23:34;;;;;;;3.55;1.42;;;13.00;96.30;;;;;;5045278;28;20036;-60
2022/03/30 11:26:00;;;;;;;3.47;1.30;;;12.90;96.70;;;;;;5044434;28;20041;-59
2022/03/30 11:28:40;;;;;;;5.10;1.58;;;13.00;96.80;;;;;;5036981;28;20037;-61
2022/03/30 11:31:22;;;;;;;2.55;1.20;;;13.20;96.50;;;;;;5043405;28;20044;-60
2022/03/30 11:34:25;;;;;;;2.50;1.20;;;13.30;96.10;;;;;;5047944;28;20086;-60
2022/03/30 11:36:53;;;;;;;2.90;1.10;;;13.40;95.30;;;;;;5047537;28;20041;-60
2022/03/30 11:39:27;;;;;;;5.85;1.40;;;13.40;95.00;;;;;;5048329;28;20909;-63
2022/03/30 11:41:54;;;;;;;2.17;1.20;;;13.20;94.90;;;;;;5049322;28;20041;-61
2022/03/30 11:47:13;;;;;;;2.78;1.10;;;13.20;96.00;;;;;;5044044;28;20040;-61
2022/03/30 11:49:53;;;;;;;2.40;1.20;;;13.10;94.90;;;;;;5047262;28;20642;-62
2022/03/30 11:52:20;;;;;;;2.90;1.17;;;13.00;95.30;;;;;;5047332;28;20037;-60
2022/03/30 11:54:50;;;;;;;2.15;0.95;;;13.00;95.20;;;;;;5047512;28;20120;-61
2022/03/30 11:57:17;;;;;;;2.88;1.02;;;13.00;94.40;;;;;;5048171;28;20037;-60
2022/03/30 12:00:00;;;;;;;1.98;0.90;;;12.90;94.90;;;;;;5047114;28;20552;-60
2022/03/30 12:02:29;;;;;;;4.40;1.25;;;12.70;95.50;;;;;;5026385;28;20087;-61
2022/03/30 12:04:56;;;;;;;5.35;1.10;;;12.60;95.30;;;;;;5044196;28;20156;-60
2022/03/30 12:07:23;;;;;;;1.92;0.80;;;12.60;95.50;;;;;;5039177;28;20452;-60
2022/03/30 12:09:52;;;;;;;2.33;0.80;;;12.40;95.60;;;;;;5018412;28;20024;-60
2022/03/30 12:12:36;;;;;;;2.67;0.77;;;12.30;95.90;;;;;;5038701;28;20513;-61
2022/03/30 12:15:11;;;;;;;2.55;0.88;;;12.40;95.90;;;;;;5044245;28;20037;-60
2022/03/30 12:17:37;;;;;;;3.72;0.73;;;12.50;95.70;;;;;;5047497;28;20025;-60
2022/03/30 12:20:06;;;;;;;1.98;0.77;;;12.70;96.10;;;;;;5042959;28;20065;-59
2022/03/30 12:22:33;;;;;;;2.03;0.63;;;12.80;95.10;;;;;;5038783;28;20032;-59
2022/03/30 12:24:59;;;;;;;4.05;0.60;;;12.60;95.40;;;;;;5035017;28;20073;-59
2022/03/30 12:27:25;;;;;;;1.13;0.50;;;12.50;95.90;;;;;;5039644;28;20150;-59
2022/03/30 12:29:55;;;;;;;1.13;0.70;;;12.50;96.40;;;;;;5038392;28;20063;-59
2022/03/30 12:32:24;;;;;;;2.80;0.80;;;12.50;96.10;;;;;;5035585;28;20037;-60
2022/03/30 12:35:04;;;;;;;3.08;0.88;;;12.40;95.80;;;;;;5038239;28;20052;-61
2022/03/30 12:37:30;;;;;;;;;;;12.40;96.20;;;;;;5026317;28;20136;-60
2022/03/30 12:40:07;;;;;;;2.92;0.52;;;12.50;96.10;;;;;;5046933;28;20003;-63
2022/03/30 12:42:33;;;;;;;1.90;0.60;;;12.60;96.40;;;;;;5047448;28;20036;-60
2022/03/30 12:45:05;;;;;;;6.90;0.50;;;12.60;96.00;;;;;;5047135;28;20040;-60
2022/03/30 12:47:36;;;;;;;3.22;0.80;;;12.50;96.10;;;;;;5039482;28;20029;-60
2022/03/30 12:50:14;;;;;;;1.67;0.70;;;12.50;96.20;;;;;;5034746;28;20133;-60
2022/03/30 12:52:43;;;;;;;2.67;0.40;;;12.50;95.90;;;;;;5045166;28;20039;-60
2022/03/30 12:55:16;;;;;;;3.42;0.60;;;12.50;96.60;;;;;;5045175;28;20037;-60
2022/03/30 12:57:54;;;;;;;3.42;0.68;;;12.50;95.90;;;;;;5046683;28;20055;-60
2022/03/30 13:00:31;;;;;;;3.17;0.60;;;12.40;96.00;;;;;;5046626;28;20083;-60
2022/03/30 13:03:06;;;;;;;1.08;0.43;;;12.40;96.10;;;;;;5043285;28;20113;-60
2022/03/30 13:05:31;;;;;;;2.75;1.10;;;12.50;96.40;;;;;;5046515;28;20036;-61